Terminal Aerodrome Forecast
Issued by NWS

Home | Current Version | Previous Version | Text Only | Print | Product List | Glossary On
Versions: 1 2 3 4 5 6 7 8 9 10 11 12 13 14 15 16 17 18 19 20 21 22 23 24 25 26 27 28
000
FTUS45 KREV 271100
TAFTRK
TAF
KTRK 271129Z 2712/2812 00000KT 1/2SM FG BKN002
     FM271500 00000KT 6SM BCFG FEW002
     FM271600 VRB03KT P6SM SKC
     FM272000 21014G24KT P6SM SKC
     FM280400 22006KT P6SM SCT200=

USA.gov is the U.S. government's official web portal to all federal, state and local government web resources and services.